Latest Weather Observations for Warra

IDT60801

Issued at 9:31 am EST Monday 19 April 2021 (issued every 10 minutes, with the page automatically refreshed every 10 minutes)

About weather observations | Map of weather stations | Latest weather observations for TAS | Other Formats
Station Details ID: 097024 Name: WARRA Lat: -43.06 Lon: 146.70 Height: 495.0 m
Data from the previous 72 hours. | See also: Recent months at Warra
Date/Time
EST
Temp
°C
App
Temp
°C
Dew
Point
°C
Rel
Hum
%
Delta-T
°C
Wind Press
QNH
hPa
Press
MSL
hPa
Rain since
9am
mm
Dir  Spd
km/h
Gust
km/h
Spd
kts
Gust
kts
19/09:30am 9.6 3.3 5.8 77 1.8 NW 28 41 15 22 - - 0.0
19/09:00am 9.4 3.8 5.6 77 1.8 NW 24 35 13 19 - - 0.0
19/08:30am 9.3 4.1 5.3 76 1.9 NW 22 32 12 17 - - 0.0
19/08:00am 8.9 4.1 5.8 81 1.5 NW 20 33 11 18 - - 0.0
19/07:30am 8.8 4.9 5.5 80 1.5 NNW 15 24 8 13 - - 0.0
19/07:00am 8.2 5.7 5.0 80 1.5 NNW 7 13 4 7 - - 0.0
19/06:30am 8.1 5.3 5.2 82 1.3 NNW 9 13 5 7 - - 0.0
19/06:00am 9.4 4.4 4.8 73 2.1 NW 20 39 11 21 - - 0.0
19/05:30am 8.9 4.5 4.7 75 1.9 NW 17 28 9 15 - - 0.0
19/05:00am 8.4 5.5 4.6 77 1.7 NNW 9 15 5 8 - - 0.0
19/04:30am 9.4 4.5 5.0 74 2.0 NW 20 39 11 21 - - 0.0
19/04:00am 9.4 4.8 5.4 76 1.9 NW 19 32 10 17 - - 0.0
19/03:30am 9.2 5.8 5.9 80 1.6 NNW 13 32 7 17 - - 0.0
19/03:00am 8.9 5.6 6.3 84 1.2 NW 13 32 7 17 - - 0.0
19/02:30am 8.7 4.1 6.5 86 1.0 NNW 20 44 11 24 - - 0.0
19/02:00am 9.5 4.4 6.0 79 1.7 WNW 22 41 12 22 - - 0.0
19/01:30am 9.9 2.9 6.1 77 1.8 WNW 32 50 17 27 - - 0.0
19/01:25am 9.9 3.7 6.3 78 1.7 WNW 28 50 15 27 - - 0.0
19/01:00am 9.6 4.1 5.8 77 1.8 WNW 24 41 13 22 - - 0.0
19/12:48am 9.5 3.2 5.7 77 1.8 WNW 28 50 15 27 - - 0.0
19/12:30am 9.3 4.6 5.3 76 1.9 WNW 19 30 10 16 - - 0.0
19/12:00am 9.1 4.7 4.9 75 1.9 NW 17 37 9 20 - - 0.0
 
Date/Time
EST
Temp
°C
App
Temp
°C
Dew
Point
°C
Rel
Hum
%
Delta-T
°C
Wind Press
QNH
hPa
Press
MSL
hPa
Rain since
9am
mm
Dir  Spd
km/h
Gust
km/h
Spd
kts
Gust
kts
18/11:30pm 9.1 4.2 5.3 77 1.8 NW 20 41 11 22 - - 0.0
18/11:21pm 9.3 2.9 5.3 76 1.9 WNW 28 48 15 26 - - 0.0
18/11:00pm 9.3 4.2 5.9 79 1.6 NW 22 43 12 23 - - 0.0
18/10:30pm 9.3 3.9 6.2 81 1.5 WNW 24 50 13 27 - - 0.0
18/10:00pm 9.5 5.5 6.6 82 1.4 WNW 17 32 9 17 - - 0.0
18/09:30pm 9.6 4.9 6.1 79 1.7 W 20 41 11 22 - - 0.0
18/09:00pm 9.6 5.1 6.3 80 1.6 WNW 19 32 10 17 - - 0.0
18/08:30pm 9.4 5.0 6.7 83 1.3 NW 19 32 10 17 - - 0.0
18/08:00pm 9.5 5.9 6.8 83 1.3 NW 15 30 8 16 - - 0.0
18/07:30pm 9.0 7.4 8.1 94 0.4 SSW 6 13 3 7 - - 0.0
18/07:00pm 9.7 6.9 7.0 83 1.3 NW 11 24 6 13 - - 0.0
18/06:30pm 9.8 5.8 6.5 80 1.6 NNW 17 33 9 18 - - 0.0
18/06:00pm 10.0 7.0 6.2 77 1.8 NNW 11 35 6 19 - - 0.0
18/05:30pm 10.1 6.8 6.3 77 1.8 NW 13 20 7 11 - - 0.0
18/05:00pm 10.4 6.6 5.8 73 2.2 NW 15 28 8 15 - - 0.0
18/04:30pm 10.8 6.3 6.2 73 2.2 WNW 19 35 10 19 - - 0.0
18/04:00pm 11.9 9.3 7.8 76 2.1 WNW 11 26 6 14 - - 0.0
18/03:30pm 11.1 6.9 7.6 79 1.7 WNW 19 33 10 18 - - 0.0
18/03:00pm 10.8 7.5 8.2 84 1.3 WNW 15 30 8 16 - - 0.0
18/02:30pm 10.9 8.0 8.0 82 1.4 WNW 13 22 7 12 - - 0.0
18/02:00pm 11.1 8.6 8.0 81 1.6 W 11 20 6 11 - - 0.0
18/01:30pm 10.8 7.2 8.2 84 1.3 NW 17 39 9 21 - - 0.0
18/01:06pm 11.0 5.0 6.9 76 2.0 WNW 28 46 15 25 - - 0.0
18/01:00pm 11.2 5.2 6.9 75 2.1 WNW 28 43 15 23 - - 0.0
18/12:30pm 11.1 4.7 7.0 76 2.0 WNW 30 56 16 30 - - 0.0
18/12:00pm 11.0 5.0 6.9 76 2.0 WNW 28 46 15 25 - - 0.0
18/11:32am 10.5 4.5 7.0 79 1.7 WNW 28 46 15 25 - - 0.0
18/11:30am 10.5 4.9 7.0 79 1.7 WNW 26 43 14 23 - - 0.0
18/11:20am 10.8 4.7 6.6 75 2.0 WNW 28 46 15 25 - - 0.0
18/11:00am 10.1 7.8 9.0 93 0.6 NE 11 24 6 13 - - 0.0
18/10:30am 10.2 8.7 8.5 89 0.9 NNW 6 11 3 6 - - 0.0
18/10:00am 10.2 7.8 6.9 80 1.6 W 9 19 5 10 - - 0.0
18/09:30am 10.1 7.0 7.2 82 1.4 W 13 24 7 13 - - 0.0
18/09:00am 9.8 7.0 7.1 83 1.3 W 11 20 6 11 - - 4.0
18/08:30am 9.8 6.7 7.4 85 1.2 W 13 26 7 14 - - 4.0
18/08:00am 9.8 5.9 6.9 82 1.4 WNW 17 39 9 21 - - 4.0
18/07:30am 9.7 5.3 6.6 81 1.5 WNW 19 33 10 18 - - 4.0
18/07:00am 9.6 6.4 6.9 83 1.3 W 13 32 7 17 - - 4.0
18/06:30am 9.6 5.7 7.0 84 1.3 W 17 32 9 17 - - 4.0
18/06:00am 9.6 5.7 6.9 83 1.3 WSW 17 33 9 18 - - 4.0
18/05:30am 9.4 5.1 6.8 84 1.3 W 19 41 10 22 - - 4.0
18/05:00am 9.4 5.4 6.7 83 1.3 W 17 30 9 16 - - 4.0
18/04:30am 9.3 5.7 6.7 84 1.2 W 15 30 8 16 - - 4.0
18/04:00am 9.4 5.4 6.8 84 1.3 W 17 37 9 20 - - 4.0
18/03:30am 9.3 4.9 6.4 82 1.4 W 19 35 10 19 - - 4.0
18/03:00am 9.2 4.7 6.3 82 1.4 WNW 19 37 10 20 - - 4.0
18/02:30am 9.2 6.3 6.6 84 1.2 W 11 28 6 15 - - 4.0
18/02:00am 8.3 6.1 6.1 86 1.0 E 7 13 4 7 - - 4.0
18/01:30am 8.7 6.0 5.8 82 1.4 W 9 20 5 11 - - 4.0
18/01:00am 8.6 6.0 6.1 84 1.2 N 9 20 5 11 - - 4.0
18/12:30am 8.7 5.7 6.0 83 1.3 NNE 11 28 6 15 - - 4.0
18/12:00am 9.1 6.5 6.0 81 1.5 SW 9 33 5 18 - - 4.0
 
Date/Time
EST
Temp
°C
App
Temp
°C
Dew
Point
°C
Rel
Hum
%
Delta-T
°C
Wind Press
QNH
hPa
Press
MSL
hPa
Rain since
9am
mm
Dir  Spd
km/h
Gust
km/h
Spd
kts
Gust
kts
17/11:30pm 9.0 6.4 6.1 82 1.4 NW 9 20 5 11 - - 4.0
17/11:00pm 9.0 6.4 6.3 83 1.3 NNE 9 17 5 9 - - 4.0
17/10:30pm 8.9 6.8 6.5 85 1.1 ESE 7 13 4 7 - - 4.0
17/10:00pm 8.6 6.5 6.6 87 1.0 NE 7 20 4 11 - - 4.0
17/09:30pm 9.0 6.5 6.4 84 1.2 NNW 9 17 5 9 - - 4.0
17/09:00pm 8.9 6.8 6.5 85 1.1 WNW 7 13 4 7 - - 4.0
17/08:30pm 8.9 6.8 6.5 85 1.1 N 7 13 4 7 - - 4.0
17/08:00pm 8.9 6.3 6.3 84 1.2 WSW 9 17 5 9 - - 4.0
17/07:30pm 9.0 4.9 6.3 83 1.3 WNW 17 30 9 16 - - 4.0
17/07:00pm 9.2 5.7 7.0 86 1.1 WNW 15 22 8 12 - - 4.0
17/06:30pm 9.4 6.6 6.8 84 1.3 W 11 22 6 12 - - 4.0
17/06:00pm 9.8 7.8 6.9 82 1.4 NNE 7 19 4 10 - - 4.0
17/05:30pm 10.2 6.2 6.5 78 1.8 NNW 17 44 9 24 - - 4.0
17/05:00pm 10.4 7.2 6.7 78 1.8 W 13 32 7 17 - - 4.0
17/04:30pm 10.8 7.4 7.7 81 1.5 WNW 15 32 8 17 - - 4.0
17/04:00pm 11.2 7.9 8.1 81 1.6 NW 15 33 8 18 - - 4.0
17/03:30pm 10.9 6.7 7.6 80 1.6 WNW 19 37 10 20 - - 4.0
17/03:00pm 11.2 8.7 8.4 83 1.4 W 11 19 6 10 - - 4.0
17/02:30pm 11.9 9.2 9.1 83 1.4 W 13 33 7 18 - - 4.0
17/02:00pm 11.1 7.0 8.7 85 1.2 W 20 50 11 27 - - 4.0
17/01:30pm 10.9 9.2 9.7 92 0.6 W 9 20 5 11 - - 3.8
17/01:00pm 10.9 7.1 9.2 89 0.9 WNW 19 32 10 17 - - 3.6
17/12:30pm 10.6 7.6 9.2 91 0.7 W 15 24 8 13 - - 3.6
17/12:00pm 10.3 7.5 10.0 98 0.2 WSW 15 30 8 16 - - 3.4
17/11:30am 9.9 5.9 9.1 95 0.4 W 20 37 11 20 - - 2.2
17/11:00am 10.0 7.0 9.1 94 0.5 W 15 26 8 14 - - 1.4
17/10:30am 10.4 7.0 9.2 92 0.6 W 17 32 9 17 - - 0.8
17/10:00am 10.3 3.7 7.9 85 1.2 WNW 32 50 17 27 - - 0.2
17/09:30am 10.3 4.1 7.7 84 1.3 WNW 30 56 16 30 - - 0.0
17/09:18am 10.3 4.4 7.4 82 1.4 WNW 28 46 15 25 - - 0.0
17/09:00am 9.7 5.3 7.6 87 1.0 WNW 20 44 11 24 - - 1.4
17/08:30am 9.4 5.6 7.5 88 0.9 WNW 17 32 9 17 - - 1.0
17/08:04am 9.5 3.6 7.3 86 1.1 WNW 28 48 15 26 - - 0.6
17/08:00am 9.3 4.1 7.4 88 0.9 WNW 24 44 13 24 - - 0.6
17/07:48am 9.2 3.3 7.3 88 0.9 WNW 28 59 15 32 - - 0.6
17/07:30am 9.0 3.4 7.1 88 0.9 WNW 26 46 14 25 - - 0.6
17/07:00am 8.7 2.2 6.7 87 1.0 WNW 30 56 16 30 - - 0.4
17/06:51am 8.9 2.8 6.5 85 1.1 WNW 28 61 15 33 - - 0.2
17/06:30am 9.2 3.7 5.9 80 1.6 WNW 24 46 13 25 - - 0.2
17/06:00am 8.9 2.2 5.6 80 1.5 WNW 30 50 16 27 - - 0.2
17/05:30am 8.7 1.9 5.1 78 1.7 WNW 30 50 16 27 - - 0.2
17/05:18am 8.8 2.4 5.0 77 1.7 WNW 28 54 15 29 - - 0.2
17/05:00am 8.2 2.9 4.8 79 1.5 WNW 22 35 12 19 - - 0.2
17/04:30am 8.3 1.0 4.5 77 1.7 WNW 32 56 17 30 - - 0.2
17/04:04am 8.2 1.5 3.9 74 1.9 W 28 54 15 29 - - 0.2
17/04:00am 8.2 2.3 3.9 74 1.9 W 24 41 13 22 - - 0.2
17/03:40am 8.3 1.6 3.6 72 2.1 WNW 28 50 15 27 - - 0.2
17/03:30am 8.0 2.4 3.3 72 2.1 W 22 41 12 22 - - 0.2
17/03:00am 8.2 0.5 3.5 72 2.1 WNW 33 57 18 31 - - 0.2
17/02:47am 8.3 0.8 3.6 72 2.1 WNW 32 69 17 37 - - 0.2
17/02:45am 8.1 1.4 3.6 73 2.0 WNW 28 46 15 25 - - 0.2
17/02:30am 8.2 3.2 3.5 72 2.1 WNW 19 48 10 26 - - 0.2
17/02:00am 8.1 3.0 3.2 71 2.1 WNW 19 37 10 20 - - 0.2
17/01:30am 7.7 2.5 3.4 74 1.9 WNW 20 33 11 18 - - 0.2
17/01:01am 7.7 2.4 3.0 72 2.0 WNW 20 52 11 28 - - 0.2
17/01:00am 7.7 2.4 3.0 72 2.0 WNW 20 52 11 28 - - 0.2
17/12:31am 7.7 0.8 2.8 71 2.1 WNW 28 50 15 27 - - 0.2
17/12:30am 7.7 0.9 3.0 72 2.0 WNW 28 54 15 29 - - 0.2
17/12:15am 7.7 1.3 3.2 73 2.0 W 26 54 14 29 - - 0.2
17/12:00am 7.6 2.4 3.5 75 1.8 WNW 20 35 11 19 - - 0.2
 
Date/Time
EST
Temp
°C
App
Temp
°C
Dew
Point
°C
Rel
Hum
%
Delta-T
°C
Wind Press
QNH
hPa
Press
MSL
hPa
Rain since
9am
mm
Dir  Spd
km/h
Gust
km/h
Spd
kts
Gust
kts
16/11:30pm 7.6 2.4 3.3 74 1.9 WNW 20 44 11 24 - - 0.2
16/11:00pm 7.5 2.2 2.8 72 2.0 WNW 20 35 11 19 - - 0.2
16/10:30pm 7.4 2.7 2.9 73 1.9 NW 17 32 9 17 - - 0.2
16/10:00pm 7.4 4.1 2.7 72 2.0 NNE 9 24 5 13 - - 0.2
16/09:30pm 7.5 2.2 3.2 74 1.9 WNW 20 37 11 20 - - 0.2
16/09:00pm 7.3 1.7 3.2 75 1.8 WNW 22 44 12 24 - - 0.2
16/08:30pm 7.3 2.1 3.5 77 1.7 WNW 20 32 11 17 - - 0.2
16/08:00pm 6.9 3.0 3.3 78 1.6 NW 13 33 7 18 - - 0.2
16/07:30pm 6.5 3.4 3.5 81 1.3 NNW 9 15 5 8 - - 0.2
16/07:00pm 6.6 1.5 3.0 78 1.5 NW 19 44 10 24 - - 0.2
16/06:30pm 7.0 1.7 2.9 75 1.8 WNW 20 39 11 21 - - 0.2
16/06:00pm 7.1 2.3 2.6 73 1.9 WNW 17 35 9 19 - - 0.2
16/05:30pm 7.1 1.8 3.2 76 1.7 WNW 20 32 11 17 - - 0.2
16/05:00pm 7.5 4.0 3.7 77 1.7 NW 11 20 6 11 - - 0.2
16/04:30pm 7.7 3.8 3.6 75 1.8 NNW 13 20 7 11 - - 0.2
16/04:00pm 7.7 3.9 3.7 76 1.8 WNW 13 24 7 13 - - 0.2
16/03:30pm 7.5 3.0 4.1 79 1.5 W 17 35 9 19 - - 0.2
16/03:00pm 7.7 3.9 3.9 77 1.7 WSW 13 24 7 13 - - 0.2
16/02:30pm 7.5 2.3 3.4 75 1.8 WNW 20 35 11 19 - - 0.2
16/02:00pm 7.0 2.7 5.3 89 0.8 W 17 22 9 12 - - 0.2
16/01:30pm 8.0 3.9 4.6 79 1.5 WNW 15 26 8 14 - - 0.2
16/01:00pm 8.1 2.9 3.8 74 1.9 W 20 41 11 22 - - 0.2
16/12:30pm 8.2 3.6 3.9 74 1.9 W 17 37 9 20 - - 0.2
16/12:00pm 7.5 2.4 4.1 79 1.5 WNW 20 35 11 19 - - 0.2
16/11:30am 7.5 3.3 3.6 76 1.7 W 15 30 8 16 - - 0.2
16/11:00am 6.7 2.8 3.5 80 1.4 WNW 13 20 7 11 - - 0.2
16/10:30am 6.6 1.9 3.0 78 1.5 WNW 17 33 9 18 - - 0.2
16/10:00am 6.5 1.1 2.6 76 1.7 W 20 37 11 20 - - 0.2

Other formats

Comma delimited format used in spreadsheet applications
http://www.bom.gov.au/fwo/IDT60801/IDT60801.95962.axf

JavaScript Object Notation format (JSON) in row-major order
http://www.bom.gov.au/fwo/IDT60801/IDT60801.95962.json

Data quality

Most of these data are generated automatically and are frequently updated. Quality checks on data are not normally performed. It is possible for incorrect values to appear. Refer to information at About Latest Weather Observations and please check the disclaimer before using these data.